createdAt,value
2018-10-16T00:01:03.691Z,9.00
2018-10-16T00:03:32.253Z,9.06
2018-10-16T00:06:00.808Z,9.07
2018-10-16T00:08:29.680Z,9.01
2018-10-16T00:10:58.229Z,8.83
2018-10-16T00:13:26.766Z,8.95
2018-10-16T00:15:55.464Z,9.02
2018-10-16T00:18:24.069Z,8.98
2018-10-16T00:20:52.597Z,8.92
2018-10-16T00:23:21.452Z,9.02
2018-10-16T00:25:50.021Z,8.85
2018-10-16T00:28:18.614Z,8.69
2018-10-16T00:30:47.332Z,8.71
2018-10-16T00:33:15.985Z,8.70
2018-10-16T00:35:44.613Z,8.77
2018-10-16T00:38:13.457Z,8.81
2018-10-16T00:40:42.045Z,8.82
2018-10-16T00:43:10.708Z,8.68
2018-10-16T00:45:39.361Z,8.65
2018-10-16T00:48:08.056Z,8.64
2018-10-16T00:50:36.734Z,8.71
2018-10-16T00:53:05.350Z,8.67
2018-10-16T00:55:33.876Z,8.73
2018-10-16T00:58:02.492Z,8.57
2018-10-16T01:00:31.136Z,8.56
2018-10-16T01:02:59.832Z,8.57
2018-10-16T01:05:28.529Z,8.44
2018-10-16T01:07:57.329Z,8.56
2018-10-16T01:10:25.853Z,8.69
2018-10-16T01:12:54.512Z,8.72
2018-10-16T01:15:23.173Z,8.74
2018-10-16T01:17:51.777Z,8.75
2018-10-16T01:20:20.593Z,8.80
2018-10-16T01:22:49.423Z,8.65
2018-10-16T01:25:17.966Z,8.54
2018-10-16T01:27:46.552Z,8.65
2018-10-16T01:30:15.177Z,8.50
2018-10-16T01:32:43.836Z,8.48
2018-10-16T01:35:13.025Z,8.41
2018-10-16T01:37:42.200Z,8.41
2018-10-16T01:40:11.708Z,8.40
2018-10-16T01:42:40.297Z,8.56
2018-10-16T01:45:09.735Z,8.57
2018-10-16T01:47:38.344Z,8.46
2018-10-16T01:50:07.386Z,8.58
2018-10-16T01:52:36.253Z,8.63
2018-10-16T01:55:04.917Z,8.44
2018-10-16T01:57:33.489Z,8.37
2018-10-16T02:00:02.149Z,8.21
2018-10-16T02:02:30.748Z,8.26
2018-10-16T02:04:59.398Z,8.26
2018-10-16T02:07:28.149Z,8.17
2018-10-16T02:09:56.696Z,8.26
2018-10-16T02:12:25.257Z,8.19
2018-10-16T02:14:54.069Z,8.18
2018-10-16T02:17:22.614Z,8.20
2018-10-16T02:19:51.177Z,8.19
2018-10-16T02:22:19.909Z,8.29
2018-10-16T02:24:48.469Z,8.22
2018-10-16T02:27:17.128Z,8.23
2018-10-16T02:29:45.828Z,8.23
2018-10-16T02:32:14.456Z,8.14
2018-10-16T02:34:43.076Z,7.92
2018-10-16T02:37:11.819Z,7.96
2018-10-16T02:39:40.820Z,7.89
2018-10-16T02:42:09.774Z,7.98
2018-10-16T02:44:38.364Z,7.84
2018-10-16T02:47:07.182Z,7.97
2018-10-16T02:49:35.835Z,7.89
2018-10-16T02:52:04.723Z,7.88
2018-10-16T02:54:33.257Z,7.86
2018-10-16T02:57:01.918Z,7.90
2018-10-16T02:59:30.707Z,7.84
2018-10-16T03:01:59.433Z,7.86
2018-10-16T03:04:27.957Z,7.89
2018-10-16T03:06:56.700Z,7.85
2018-10-16T03:09:25.253Z,7.81
2018-10-16T03:11:53.864Z,7.82
2018-10-16T03:14:22.485Z,7.90
2018-10-16T03:16:51.253Z,7.70
2018-10-16T03:19:19.806Z,7.52
2018-10-16T03:21:48.361Z,7.53
2018-10-16T03:24:16.941Z,7.41
2018-10-16T03:26:45.537Z,7.42
2018-10-16T03:29:14.360Z,7.49
2018-10-16T03:31:42.870Z,7.54
2018-10-16T03:34:11.440Z,7.48
2018-10-16T03:36:40.769Z,7.53
2018-10-16T03:39:11.282Z,7.53
2018-10-16T03:41:40.017Z,7.61
2018-10-16T03:44:11.897Z,7.68
2018-10-16T03:46:40.559Z,7.48
2018-10-16T03:49:10.420Z,7.48
2018-10-16T03:51:39.744Z,7.42
2018-10-16T03:54:08.921Z,7.38
2018-10-16T03:56:37.491Z,7.42
2018-10-16T03:59:06.493Z,7.50
2018-10-16T04:01:35.090Z,7.42
2018-10-16T04:04:03.732Z,7.36
2018-10-16T04:06:32.781Z,7.40
2018-10-16T04:09:01.253Z,7.42
2018-10-16T04:11:29.888Z,7.41
2018-10-16T04:13:58.670Z,7.35
2018-10-16T04:16:27.229Z,7.41
2018-10-16T04:18:55.792Z,7.24
2018-10-16T04:21:29.138Z,7.18
2018-10-16T04:23:57.964Z,7.25
2018-10-16T04:26:26.585Z,7.31
2018-10-16T04:28:55.334Z,7.16
2018-10-16T04:31:23.969Z,7.13
2018-10-16T04:33:52.564Z,7.13
2018-10-16T04:36:21.330Z,7.10
2018-10-16T04:38:49.872Z,7.09
2018-10-16T04:41:18.441Z,7.00
2018-10-16T04:43:48.137Z,7.00
2018-10-16T04:46:16.772Z,7.05
2018-10-16T04:48:45.362Z,7.12
2018-10-16T04:51:14.013Z,7.20
2018-10-16T04:53:42.545Z,7.01
2018-10-16T04:56:11.201Z,7.02
2018-10-16T04:58:40.105Z,6.93
2018-10-16T05:01:08.889Z,7.05
2018-10-16T05:03:37.750Z,6.97
2018-10-16T05:06:06.654Z,7.06
2018-10-16T05:08:35.229Z,7.16
2018-10-16T05:11:03.897Z,7.12
2018-10-16T05:13:32.500Z,7.15
2018-10-16T05:16:01.160Z,7.10
2018-10-16T05:18:29.773Z,7.09
2018-10-16T05:20:58.629Z,7.26
2018-10-16T05:23:27.176Z,7.21
2018-10-16T05:25:55.848Z,7.10
2018-10-16T05:28:24.503Z,7.03
2018-10-16T05:30:53.059Z,6.99
2018-10-16T05:33:21.640Z,7.05
2018-10-16T05:35:50.388Z,6.90
2018-10-16T05:38:18.948Z,6.97
2018-10-16T05:40:47.599Z,6.97
2018-10-16T05:43:16.571Z,7.03
2018-10-16T05:45:46.486Z,6.89
2018-10-16T05:48:15.133Z,6.97
2018-10-16T05:50:43.932Z,6.97
2018-10-16T05:53:12.441Z,6.96
2018-10-16T05:55:40.998Z,7.01
2018-10-16T05:58:10.209Z,6.96
2018-10-16T06:00:44.632Z,7.03
2018-10-16T06:03:13.277Z,7.02
2018-10-16T06:05:41.875Z,6.97
2018-10-16T06:08:10.532Z,7.13
2018-10-16T06:10:39.400Z,6.98
2018-10-16T06:13:07.888Z,7.09
2018-10-16T06:15:36.448Z,7.14
2018-10-16T06:18:05.436Z,7.04
2018-10-16T06:20:34.149Z,7.08
2018-10-16T06:23:02.820Z,7.13
2018-10-16T06:25:31.651Z,7.25
2018-10-16T06:28:04.899Z,7.27
2018-10-16T06:30:33.549Z,7.32
2018-10-16T06:33:02.203Z,7.38
2018-10-16T06:35:31.376Z,7.47
2018-10-16T06:37:59.981Z,7.56
2018-10-16T06:40:28.589Z,7.58
2018-10-16T06:42:57.765Z,7.84
2018-10-16T06:45:26.763Z,7.87
2018-10-16T06:47:55.511Z,7.93
2018-10-16T06:50:24.139Z,7.98
2018-10-16T06:52:52.948Z,8.16
2018-10-16T06:55:21.555Z,8.31
2018-10-16T06:57:50.133Z,8.33
2018-10-16T07:00:18.803Z,8.48
2018-10-16T07:02:47.294Z,8.57
2018-10-16T07:05:15.888Z,8.58
2018-10-16T07:07:44.477Z,8.61
2018-10-16T07:10:13.046Z,8.75
2018-10-16T07:12:41.761Z,8.79
2018-10-16T07:15:10.737Z,8.88
2018-10-16T07:17:39.393Z,8.93
2018-10-16T07:20:08.993Z,9.07
2018-10-16T07:22:37.741Z,9.06
2018-10-16T07:25:07.732Z,9.27
2018-10-16T07:27:36.336Z,9.38
2018-10-16T07:30:05.799Z,9.54
2018-10-16T07:32:34.454Z,9.54
2018-10-16T07:35:03.133Z,9.74
2018-10-16T07:37:31.780Z,9.77
2018-10-16T07:40:00.316Z,9.82
2018-10-16T07:42:29.069Z,10.00
2018-10-16T07:44:58.084Z,10.13
2018-10-16T07:47:26.656Z,10.33
2018-10-16T07:49:55.197Z,10.46
2018-10-16T07:52:23.883Z,10.49
2018-10-16T07:54:52.525Z,10.74
2018-10-16T07:57:21.308Z,10.89
2018-10-16T07:59:49.968Z,11.09
2018-10-16T08:02:18.621Z,11.27
2018-10-16T08:04:47.277Z,11.45
2018-10-16T08:07:16.101Z,11.57
2018-10-16T08:09:44.654Z,11.70
2018-10-16T08:12:13.332Z,11.92
2018-10-16T08:14:42.057Z,12.05
2018-10-16T08:17:10.755Z,12.18
2018-10-16T08:19:39.309Z,12.42
2018-10-16T08:22:07.898Z,12.45
2018-10-16T08:24:36.485Z,12.81
2018-10-16T08:27:05.129Z,12.54
2018-10-16T08:29:33.785Z,12.87
2018-10-16T08:32:02.405Z,13.00
2018-10-16T08:34:30.933Z,13.15
2018-10-16T08:36:59.911Z,13.12
2018-10-16T08:39:37.413Z,13.14
2018-10-16T08:42:15.326Z,13.47
2018-10-16T08:45:25.652Z,13.23
2018-10-16T08:48:05.510Z,13.38
2018-10-16T08:50:47.085Z,13.62
2018-10-16T08:53:15.717Z,13.79
2018-10-16T08:55:44.349Z,13.85
2018-10-16T08:58:12.943Z,13.64
2018-10-16T09:00:41.701Z,13.67
2018-10-16T09:03:10.256Z,13.91
2018-10-16T09:05:38.932Z,13.68
2018-10-16T09:08:07.512Z,13.98
2018-10-16T09:10:36.116Z,14.14
2018-10-16T09:13:04.765Z,14.28
2018-10-16T09:15:33.476Z,14.41
2018-10-16T09:18:02.065Z,14.62
2018-10-16T09:20:30.730Z,14.76
2018-10-16T09:22:59.453Z,14.95
2018-10-16T09:25:28.109Z,15.05
2018-10-16T09:27:56.829Z,15.22
2018-10-16T09:30:25.548Z,15.51
2018-10-16T09:32:54.136Z,15.73
2018-10-16T09:35:22.692Z,15.89
2018-10-16T09:37:51.563Z,15.96
2018-10-16T09:40:20.134Z,16.10
2018-10-16T09:42:48.694Z,16.23
2018-10-16T09:45:17.289Z,16.37
2018-10-16T09:47:45.841Z,16.59
2018-10-16T09:50:14.464Z,16.70
2018-10-16T09:52:43.128Z,16.70
2018-10-16T09:55:11.773Z,16.98
2018-10-16T09:57:40.365Z,17.12
2018-10-16T10:00:14.932Z,17.24
2018-10-16T10:02:43.549Z,17.47
2018-10-16T10:05:12.445Z,17.63
2018-10-16T10:07:41.378Z,17.75
2018-10-16T10:10:10.282Z,17.77
2018-10-16T10:12:39.289Z,17.85
2018-10-16T10:15:08.524Z,17.88
2018-10-16T10:17:37.657Z,18.02
2018-10-16T10:20:07.084Z,18.20
2018-10-16T10:22:35.825Z,18.34
2018-10-16T10:25:05.188Z,18.35
2018-10-16T10:27:33.805Z,18.44
2018-10-16T10:30:03.140Z,18.50
2018-10-16T10:32:32.214Z,18.62
2018-10-16T10:35:00.998Z,18.48
2018-10-16T10:37:29.875Z,18.58
2018-10-16T10:39:58.428Z,18.79
2018-10-16T10:42:27.021Z,18.95
2018-10-16T10:44:55.782Z,19.06
2018-10-16T10:47:24.420Z,19.23
2018-10-16T10:49:53.104Z,19.28
2018-10-16T10:52:21.839Z,19.43
2018-10-16T10:54:50.413Z,19.41
2018-10-16T10:57:19.092Z,19.58
2018-10-16T10:59:47.677Z,19.78
2018-10-16T11:02:16.305Z,20.15
2018-10-16T11:04:44.850Z,20.05
2018-10-16T11:07:13.468Z,20.08
2018-10-16T11:09:42.045Z,20.13
2018-10-16T11:12:10.641Z,20.20
2018-10-16T11:14:39.404Z,20.32
2018-10-16T11:17:08.036Z,20.29
2018-10-16T11:19:36.554Z,20.45
2018-10-16T11:22:05.285Z,20.75
2018-10-16T11:24:33.844Z,20.63
2018-10-16T11:27:02.433Z,20.81
2018-10-16T11:29:31.417Z,20.88
2018-10-16T11:32:00.049Z,21.03
2018-10-16T11:34:28.681Z,21.07
2018-10-16T11:36:57.409Z,21.32
2018-10-16T11:39:25.943Z,21.41
2018-10-16T11:41:56.264Z,21.70
2018-10-16T11:44:24.908Z,21.92
2018-10-16T11:46:53.724Z,22.14
2018-10-16T11:49:22.257Z,22.17
2018-10-16T11:51:50.844Z,22.24
2018-10-16T11:54:19.428Z,22.29
2018-10-16T11:56:48.606Z,22.31
2018-10-16T11:59:17.385Z,22.39
2018-10-16T12:01:46.101Z,22.62
2018-10-16T12:04:14.634Z,22.61
2018-10-16T12:06:43.311Z,22.67
2018-10-16T12:09:11.871Z,22.69
2018-10-16T12:11:40.813Z,22.74
2018-10-16T12:14:10.132Z,23.02
2018-10-16T12:17:14.552Z,23.14
2018-10-16T12:19:48.265Z,22.96
2018-10-16T12:22:16.900Z,22.92
2018-10-16T12:24:45.421Z,23.00
2018-10-16T12:27:14.115Z,23.19
2018-10-16T12:29:42.728Z,23.20
2018-10-16T12:32:11.469Z,22.95
2018-10-16T12:34:40.285Z,23.26
2018-10-16T12:37:08.946Z,23.28
2018-10-16T12:39:37.589Z,23.35
2018-10-16T12:42:06.521Z,23.42
2018-10-16T12:44:35.113Z,23.51
2018-10-16T12:47:03.811Z,23.46
2018-10-16T12:49:32.460Z,23.69
2018-10-16T12:52:01.168Z,23.67
2018-10-16T12:54:29.736Z,23.64
2018-10-16T12:56:58.708Z,23.58
2018-10-16T12:59:27.231Z,23.47
2018-10-16T13:01:55.853Z,23.52
2018-10-16T13:04:24.696Z,23.49
2018-10-16T13:06:53.336Z,23.57
2018-10-16T13:09:21.880Z,23.49
2018-10-16T13:11:50.597Z,23.73
2018-10-16T13:14:19.118Z,23.77
2018-10-16T13:16:47.713Z,23.70
2018-10-16T13:19:16.457Z,23.65
2018-10-16T13:21:45.102Z,23.89
2018-10-16T13:24:14.021Z,23.75
2018-10-16T13:26:42.748Z,23.70
2018-10-16T13:29:11.421Z,23.48
2018-10-16T13:31:40.021Z,23.64
2018-10-16T13:34:08.697Z,23.80
2018-10-16T13:36:37.266Z,23.75
2018-10-16T13:39:07.793Z,23.89
2018-10-16T13:41:36.395Z,24.06
2018-10-16T13:44:05.400Z,24.07
2018-10-16T13:46:34.494Z,23.94
2018-10-16T13:49:03.254Z,23.91
2018-10-16T13:51:31.920Z,24.11
2018-10-16T13:54:00.728Z,24.00
2018-10-16T13:56:29.252Z,24.08
2018-10-16T13:58:57.815Z,24.24
2018-10-16T14:01:26.585Z,24.20
2018-10-16T14:03:55.174Z,24.11
2018-10-16T14:06:23.786Z,24.10
2018-10-16T14:08:52.389Z,24.26
2018-10-16T14:11:20.972Z,24.28
2018-10-16T14:13:49.521Z,24.10
2018-10-16T14:16:18.318Z,24.25
2018-10-16T14:18:47.133Z,24.08
2018-10-16T14:21:15.737Z,24.07
2018-10-16T14:23:44.365Z,24.26
2018-10-16T14:26:12.985Z,24.13
2018-10-16T14:28:41.425Z,24.10
2018-10-16T14:31:10.064Z,24.15
2018-10-16T14:33:38.830Z,24.17
2018-10-16T14:36:07.648Z,24.06
2018-10-16T14:38:36.341Z,24.21
2018-10-16T14:41:05.029Z,24.21
2018-10-16T14:43:33.613Z,24.14
2018-10-16T14:46:03.043Z,24.19
2018-10-16T14:48:31.622Z,24.24
2018-10-16T14:51:00.345Z,24.14
2018-10-16T14:53:29.308Z,24.15
2018-10-16T14:55:57.929Z,23.96
2018-10-16T14:58:26.695Z,23.97
2018-10-16T15:00:55.694Z,23.97
2018-10-16T15:03:24.275Z,23.86
2018-10-16T15:05:52.920Z,23.83
2018-10-16T15:08:21.659Z,23.88
2018-10-16T15:10:50.313Z,23.84
2018-10-16T15:13:18.960Z,23.84
2018-10-16T15:15:47.872Z,23.82
2018-10-16T15:18:16.524Z,23.73
2018-10-16T15:20:45.096Z,23.75
2018-10-16T15:23:13.677Z,23.70
2018-10-16T15:25:42.236Z,23.66
2018-10-16T15:28:10.861Z,23.74
2018-10-16T15:30:39.741Z,23.75
2018-10-16T15:33:08.385Z,23.56
2018-10-16T15:35:37.104Z,23.50
2018-10-16T15:38:05.849Z,23.44
2018-10-16T15:40:34.400Z,23.43
2018-10-16T15:43:03.528Z,23.43
2018-10-16T15:45:32.201Z,23.31
2018-10-16T15:48:00.852Z,23.28
2018-10-16T15:50:29.909Z,23.21
2018-10-16T15:52:58.860Z,23.04
2018-10-16T15:55:27.512Z,22.95
2018-10-16T15:57:56.095Z,22.79
2018-10-16T16:00:24.845Z,22.70
2018-10-16T16:02:53.353Z,22.43
2018-10-16T16:05:22.019Z,22.28
2018-10-16T16:07:50.953Z,22.00
2018-10-16T16:10:19.572Z,21.75
2018-10-16T16:12:48.180Z,21.49
2018-10-16T16:15:17.125Z,21.21
2018-10-16T16:17:45.833Z,20.84
2018-10-16T16:20:15.367Z,20.61
2018-10-16T16:22:44.445Z,20.41
2018-10-16T16:25:14.973Z,20.08
2018-10-16T16:27:43.661Z,19.71
2018-10-16T16:30:14.929Z,19.52
2018-10-16T16:32:43.569Z,19.36
2018-10-16T16:35:12.217Z,19.32
2018-10-16T16:37:40.794Z,19.21
2018-10-16T16:40:11.514Z,19.11
2018-10-16T16:42:40.181Z,18.99
2018-10-16T16:45:09.793Z,18.94
2018-10-16T16:47:38.828Z,18.77
2018-10-16T16:50:08.944Z,18.76
2018-10-16T16:52:37.869Z,18.62
2018-10-16T16:55:08.424Z,18.51
2018-10-16T16:57:37.536Z,18.33
2018-10-16T17:00:06.432Z,18.35
2018-10-16T17:02:35.069Z,18.31
2018-10-16T17:05:03.708Z,18.21
2018-10-16T17:07:32.340Z,18.03
2018-10-16T17:10:00.998Z,18.06
2018-10-16T17:12:29.680Z,17.93
2018-10-16T17:14:58.260Z,17.83
2018-10-16T17:17:26.915Z,17.76
2018-10-16T17:19:55.497Z,17.72
2018-10-16T17:22:24.077Z,17.59
2018-10-16T17:24:52.727Z,17.65
2018-10-16T17:27:21.146Z,17.70
2018-10-16T17:29:49.791Z,17.60
2018-10-16T17:32:18.409Z,17.54
2018-10-16T17:34:47.113Z,17.47
2018-10-16T17:37:15.885Z,17.34
2018-10-16T17:39:44.394Z,17.41
2018-10-16T17:42:12.937Z,17.33
2018-10-16T17:44:41.609Z,17.21
2018-10-16T17:47:10.201Z,17.25
2018-10-16T17:49:38.821Z,17.17
2018-10-16T17:52:07.756Z,17.33
2018-10-16T17:54:36.312Z,17.13
2018-10-16T17:57:05.201Z,17.14
2018-10-16T17:59:33.797Z,17.01
2018-10-16T18:02:02.568Z,16.88
2018-10-16T18:04:31.272Z,16.76
2018-10-16T18:07:00.257Z,16.75
2018-10-16T18:09:28.902Z,16.70
2018-10-16T18:11:57.730Z,16.36
2018-10-16T18:14:26.555Z,16.08
2018-10-16T18:16:55.101Z,15.97
2018-10-16T18:19:23.705Z,15.98
2018-10-16T18:21:52.647Z,15.79
2018-10-16T18:24:21.220Z,15.82
2018-10-16T18:26:49.785Z,15.55
2018-10-16T18:29:19.077Z,15.41
2018-10-16T18:31:47.680Z,15.46
2018-10-16T18:34:16.304Z,15.54
2018-10-16T18:36:45.040Z,15.38
2018-10-16T18:39:14.040Z,15.27
2018-10-16T18:41:42.742Z,15.10
2018-10-16T18:44:11.338Z,15.10
2018-10-16T18:46:40.538Z,14.99
2018-10-16T18:49:09.414Z,14.95
2018-10-16T18:51:38.735Z,14.83
2018-10-16T18:54:07.619Z,14.80
2018-10-16T18:56:36.389Z,14.75
2018-10-16T18:59:05.209Z,14.66
2018-10-16T19:01:33.904Z,14.55
2018-10-16T19:04:02.564Z,14.53
2018-10-16T19:06:31.384Z,14.33
2018-10-16T19:09:00.441Z,14.27
2018-10-16T19:11:29.620Z,14.37
2018-10-16T19:13:58.388Z,14.33
2018-10-16T19:16:27.419Z,14.33
2018-10-16T19:18:56.025Z,14.08
2018-10-16T19:21:24.788Z,14.15
2018-10-16T19:23:53.346Z,13.96
2018-10-16T19:26:21.977Z,13.91
2018-10-16T19:28:50.888Z,13.99
2018-10-16T19:31:19.472Z,13.77
2018-10-16T19:33:48.124Z,13.76
2018-10-16T19:36:17.034Z,13.63
2018-10-16T19:38:45.664Z,13.46
2018-10-16T19:41:14.300Z,13.47
2018-10-16T19:43:42.971Z,13.37
2018-10-16T19:46:12.183Z,13.36
2018-10-16T19:48:40.981Z,13.20
2018-10-16T19:51:09.964Z,13.12
2018-10-16T19:53:38.804Z,13.17
2018-10-16T19:56:07.497Z,13.06
2018-10-16T19:58:36.205Z,12.89
2018-10-16T20:01:05.108Z,12.90
2018-10-16T20:03:33.636Z,12.80
2018-10-16T20:06:02.512Z,12.75
2018-10-16T20:08:31.068Z,12.67
2018-10-16T20:10:59.709Z,12.74
2018-10-16T20:13:28.717Z,12.61
2018-10-16T20:15:57.422Z,12.63
2018-10-16T20:18:26.055Z,12.48
2018-10-16T20:20:54.788Z,12.49
2018-10-16T20:23:23.335Z,12.53
2018-10-16T20:25:51.887Z,12.45
2018-10-16T20:28:20.584Z,12.38
2018-10-16T20:30:49.125Z,12.27
2018-10-16T20:33:17.724Z,12.28
2018-10-16T20:35:46.689Z,12.16
2018-10-16T20:38:15.216Z,12.20
2018-10-16T20:40:43.790Z,12.20
2018-10-16T20:43:12.418Z,12.14
2018-10-16T20:45:41.004Z,12.04
2018-10-16T20:48:09.620Z,11.86
2018-10-16T20:50:38.192Z,11.99
2018-10-16T20:53:06.868Z,12.13
2018-10-16T20:55:35.425Z,12.12
2018-10-16T20:58:04.128Z,11.95
2018-10-16T21:00:32.835Z,12.05
2018-10-16T21:03:01.400Z,12.02
2018-10-16T21:05:30.211Z,11.80
2018-10-16T21:07:58.708Z,11.73
2018-10-16T21:10:27.276Z,11.73
2018-10-16T21:12:56.178Z,11.67
2018-10-16T21:15:24.716Z,11.74
2018-10-16T21:17:53.386Z,11.69
2018-10-16T21:20:22.040Z,11.57
2018-10-16T21:22:50.559Z,11.52
2018-10-16T21:25:19.180Z,11.28
2018-10-16T21:27:47.769Z,11.41
2018-10-16T21:30:16.445Z,11.28
2018-10-16T21:32:45.005Z,11.25
2018-10-16T21:35:13.661Z,11.36
2018-10-16T21:37:42.339Z,11.46
2018-10-16T21:40:10.969Z,11.21
2018-10-16T21:42:39.572Z,11.19
2018-10-16T21:45:08.241Z,11.09
2018-10-16T21:47:36.817Z,11.06
2018-10-16T21:50:05.805Z,10.96
2018-10-16T21:52:34.448Z,11.00
2018-10-16T21:55:03.139Z,10.97
2018-10-16T21:57:31.796Z,11.03
2018-10-16T22:00:00.492Z,10.95
2018-10-16T22:02:34.329Z,10.92
2018-10-16T22:05:02.864Z,10.93
2018-10-16T22:07:31.479Z,11.11
2018-10-16T22:10:00.201Z,10.95
2018-10-16T22:12:28.726Z,10.81
2018-10-16T22:14:57.276Z,10.70
2018-10-16T22:17:25.988Z,10.57
2018-10-16T22:19:54.528Z,10.65
2018-10-16T22:22:23.094Z,10.57
2018-10-16T22:24:51.714Z,10.56
2018-10-16T22:27:20.244Z,10.50
2018-10-16T22:29:48.757Z,10.55
2018-10-16T22:32:17.353Z,10.69
2018-10-16T22:34:45.934Z,10.48
2018-10-16T22:37:14.696Z,10.37
2018-10-16T22:39:43.560Z,10.40
2018-10-16T22:42:12.225Z,10.49
2018-10-16T22:44:40.790Z,10.41
2018-10-16T22:47:09.679Z,10.41
2018-10-16T22:49:38.230Z,10.32
2018-10-16T22:52:06.856Z,10.32
2018-10-16T22:54:35.553Z,10.29
2018-10-16T22:57:04.116Z,10.10
2018-10-16T22:59:32.700Z,10.04
2018-10-16T23:02:01.305Z,10.18
2018-10-16T23:04:29.901Z,10.04
2018-10-16T23:06:58.598Z,10.00
2018-10-16T23:09:27.245Z,9.93
2018-10-16T23:11:55.761Z,9.81
2018-10-16T23:14:24.321Z,9.82
2018-10-16T23:16:53.094Z,9.82
2018-10-16T23:19:21.672Z,9.78
2018-10-16T23:21:50.225Z,9.73
2018-10-16T23:24:18.901Z,9.88
2018-10-16T23:26:47.432Z,9.77
2018-10-16T23:29:16.151Z,9.66
2018-10-16T23:31:44.904Z,9.53
2018-10-16T23:34:13.546Z,9.57
2018-10-16T23:36:42.188Z,9.65
2018-10-16T23:39:13.823Z,9.52
2018-10-16T23:41:43.173Z,9.44
2018-10-16T23:44:12.356Z,9.56
2018-10-16T23:46:40.996Z,9.70
2018-10-16T23:49:10.353Z,9.63
2018-10-16T23:51:38.874Z,9.58
2018-10-16T23:54:07.618Z,9.45
2018-10-16T23:56:36.184Z,9.36
2018-10-16T23:59:04.923Z,9.39
